createdAt,value
2019-03-22T00:02:23.043Z,0.09
2019-03-22T00:04:49.916Z,0.05
2019-03-22T00:07:16.651Z,0.05
2019-03-22T00:09:43.400Z,0.06
2019-03-22T00:12:10.185Z,0.03
2019-03-22T00:14:37.235Z,0.00
2019-03-22T00:17:04.089Z,0.04
2019-03-22T00:19:30.834Z,0.00
2019-03-22T00:21:57.550Z,-0.08
2019-03-22T00:24:24.396Z,-0.12
2019-03-22T00:26:51.135Z,-0.11
2019-03-22T00:29:17.870Z,-0.11
2019-03-22T00:31:44.778Z,-0.14
2019-03-22T00:34:11.523Z,-0.20
2019-03-22T00:36:38.266Z,-0.20
2019-03-22T00:39:05.421Z,-0.21
2019-03-22T00:41:32.166Z,-0.24
2019-03-22T00:43:58.904Z,-0.31
2019-03-22T00:46:25.785Z,-0.31
2019-03-22T00:48:52.536Z,-0.36
2019-03-22T00:51:19.303Z,-0.37
2019-03-22T00:53:46.155Z,-0.36
2019-03-22T00:56:12.916Z,-0.40
2019-03-22T00:58:39.648Z,-0.39
2019-03-22T01:01:06.544Z,-0.45
2019-03-22T01:03:33.259Z,-0.47
2019-03-22T01:05:59.991Z,-0.51
2019-03-22T01:08:27.008Z,-0.50
2019-03-22T01:10:53.756Z,-0.52
2019-03-22T01:13:20.500Z,-0.52
2019-03-22T01:15:47.364Z,-0.55
2019-03-22T01:18:14.147Z,-0.57
2019-03-22T01:20:40.877Z,-0.57
2019-03-22T01:23:07.764Z,-0.58
2019-03-22T01:25:34.493Z,-0.54
2019-03-22T01:28:01.245Z,-0.55
2019-03-22T01:30:28.110Z,-0.61
2019-03-22T01:32:54.833Z,-0.66
2019-03-22T01:35:21.619Z,-0.70
2019-03-22T01:37:48.376Z,-0.68
2019-03-22T01:40:15.776Z,-0.70
2019-03-22T01:42:42.666Z,-0.72
2019-03-22T01:45:12.290Z,-0.71
2019-03-22T01:47:39.062Z,-0.71
2019-03-22T01:50:10.339Z,-0.74
2019-03-22T01:52:37.849Z,-0.79
2019-03-22T01:55:04.943Z,-0.83
2019-03-22T01:57:31.659Z,-0.83
2019-03-22T01:59:58.410Z,-0.88
2019-03-22T02:02:25.261Z,-0.86
2019-03-22T02:04:52.084Z,-0.90
2019-03-22T02:07:18.771Z,-0.92
2019-03-22T02:09:45.527Z,-0.95
2019-03-22T02:12:12.245Z,-0.91
2019-03-22T02:14:39.121Z,-0.90
2019-03-22T02:17:06.070Z,-0.93
2019-03-22T02:19:32.815Z,-0.92
2019-03-22T02:21:59.676Z,-0.90
2019-03-22T02:24:26.423Z,-0.88
2019-03-22T02:26:53.329Z,-0.81
2019-03-22T02:29:20.057Z,-0.82
2019-03-22T02:31:46.784Z,-0.88
2019-03-22T02:34:13.662Z,-0.98
2019-03-22T02:36:40.396Z,-1.10
2019-03-22T02:39:07.135Z,-1.11
2019-03-22T02:41:34.042Z,-1.12
2019-03-22T02:44:00.787Z,-1.14
2019-03-22T02:46:27.515Z,-1.18
2019-03-22T02:48:54.404Z,-1.18
2019-03-22T02:51:21.146Z,-1.20
2019-03-22T02:53:47.884Z,-1.22
2019-03-22T02:56:14.733Z,-1.26
2019-03-22T02:58:41.625Z,-1.27
2019-03-22T03:01:08.369Z,-1.26
2019-03-22T03:03:35.161Z,-1.32
2019-03-22T03:06:01.893Z,-1.34
2019-03-22T03:08:28.627Z,-1.38
2019-03-22T03:10:55.503Z,-1.33
2019-03-22T03:13:22.216Z,-1.32
2019-03-22T03:15:48.978Z,-1.31
2019-03-22T03:18:15.749Z,-1.35
2019-03-22T03:20:42.482Z,-1.30
2019-03-22T03:23:09.234Z,-1.32
2019-03-22T03:25:36.011Z,-1.35
2019-03-22T03:28:02.746Z,-1.36
2019-03-22T03:30:29.621Z,-1.38
2019-03-22T03:32:56.346Z,-1.40
2019-03-22T03:35:23.088Z,-1.42
2019-03-22T03:37:49.975Z,-1.46
2019-03-22T03:40:16.840Z,-1.50
2019-03-22T03:42:43.725Z,-1.52
2019-03-22T03:45:34.623Z,-1.54
2019-03-22T03:48:04.503Z,-1.59
2019-03-22T03:50:31.419Z,-1.67
2019-03-22T03:52:58.185Z,-1.70
2019-03-22T03:55:25.715Z,-1.69
2019-03-22T03:57:52.569Z,-1.72
2019-03-22T04:00:19.407Z,-1.69
2019-03-22T04:02:46.124Z,-1.66
2019-03-22T04:05:14.708Z,-1.64
2019-03-22T04:07:41.435Z,-1.63
2019-03-22T04:10:08.513Z,-1.64
2019-03-22T04:12:35.227Z,-1.61
2019-03-22T04:15:03.380Z,-1.58
2019-03-22T04:17:30.215Z,-1.57
2019-03-22T04:19:56.963Z,-1.60
2019-03-22T04:22:23.704Z,-1.63
2019-03-22T04:24:50.498Z,-1.65
2019-03-22T04:27:17.218Z,-1.62
2019-03-22T04:29:44.067Z,-1.62
2019-03-22T04:32:10.816Z,-1.66
2019-03-22T04:34:37.562Z,-1.63
2019-03-22T04:37:04.428Z,-1.55
2019-03-22T04:39:31.152Z,-1.52
2019-03-22T04:41:57.953Z,-1.51
2019-03-22T04:44:24.724Z,-1.50
2019-03-22T04:46:52.742Z,-1.48
2019-03-22T04:49:22.133Z,-1.49
2019-03-22T04:51:50.353Z,-1.51
2019-03-22T04:54:19.412Z,-1.53
2019-03-22T04:56:48.289Z,-1.47
2019-03-22T04:59:19.343Z,-1.48
2019-03-22T05:01:50.395Z,-1.54
2019-03-22T05:04:18.834Z,-1.55
2019-03-22T05:06:48.361Z,-1.49
2019-03-22T05:09:17.028Z,-1.52
2019-03-22T05:11:46.577Z,-1.57
2019-03-22T05:14:16.129Z,-1.60
2019-03-22T05:16:47.298Z,-1.67
2019-03-22T05:19:15.632Z,-1.74
2019-03-22T05:21:43.863Z,-1.75
2019-03-22T05:24:13.745Z,-1.74
2019-03-22T05:26:41.114Z,-1.72
2019-03-22T05:29:10.797Z,-1.78
2019-03-22T05:31:49.076Z,-1.82
2019-03-22T05:34:15.826Z,-1.87
2019-03-22T05:36:42.541Z,-1.93
2019-03-22T05:39:09.893Z,-1.84
2019-03-22T05:41:36.706Z,-1.82
2019-03-22T05:44:03.452Z,-1.83
2019-03-22T05:46:30.240Z,-1.83
2019-03-22T05:48:56.973Z,-1.80
2019-03-22T05:51:23.844Z,-1.74
2019-03-22T05:53:50.571Z,-1.67
2019-03-22T05:56:17.295Z,-1.62
2019-03-22T05:58:44.165Z,-1.55
2019-03-22T06:01:10.914Z,-1.52
2019-03-22T06:03:37.654Z,-1.49
2019-03-22T06:06:04.565Z,-1.50
2019-03-22T06:08:31.315Z,-1.52
2019-03-22T06:10:58.052Z,-1.47
2019-03-22T06:13:24.946Z,-1.43
2019-03-22T06:15:51.682Z,-1.41
2019-03-22T06:18:18.419Z,-1.34
2019-03-22T06:20:45.218Z,-1.31
2019-03-22T06:23:11.957Z,-1.28
2019-03-22T06:25:38.855Z,-1.24
2019-03-22T06:28:05.613Z,-1.15
2019-03-22T06:30:32.351Z,-1.13
2019-03-22T06:32:59.248Z,-1.05
2019-03-22T06:35:25.973Z,-0.98
2019-03-22T06:37:52.706Z,-0.91
2019-03-22T06:40:19.608Z,-0.86
2019-03-22T06:42:46.403Z,-0.75
2019-03-22T06:45:13.157Z,-0.70
2019-03-22T06:47:39.921Z,-0.63
2019-03-22T06:50:06.781Z,-0.49
2019-03-22T06:52:33.652Z,-0.39
2019-03-22T06:55:00.476Z,-0.27
2019-03-22T06:57:27.296Z,-0.18
2019-03-22T07:00:05.604Z,-0.08
2019-03-22T07:02:22.693Z,0.07
2019-03-22T07:04:49.430Z,0.18
2019-03-22T07:07:16.303Z,0.30
2019-03-22T07:09:43.038Z,0.43
2019-03-22T07:12:09.794Z,0.56
2019-03-22T07:14:36.644Z,0.69
2019-03-22T07:17:03.494Z,0.83
2019-03-22T07:19:30.245Z,0.93
2019-03-22T07:21:57.140Z,1.05
2019-03-22T07:24:23.904Z,1.14
2019-03-22T07:26:50.646Z,1.23
2019-03-22T07:29:17.501Z,1.25
2019-03-22T07:31:44.235Z,1.31
2019-03-22T07:34:10.974Z,1.43
2019-03-22T07:36:57.500Z,1.56
2019-03-22T07:39:24.215Z,1.63
2019-03-22T07:41:50.973Z,1.73
2019-03-22T07:44:17.917Z,1.83
2019-03-22T07:46:44.710Z,1.92
2019-03-22T07:49:11.419Z,1.98
2019-03-22T07:51:38.310Z,2.08
2019-03-22T07:54:05.038Z,2.16
2019-03-22T07:56:31.788Z,2.27
2019-03-22T07:59:18.388Z,2.39
2019-03-22T08:01:45.215Z,2.48
2019-03-22T08:04:11.953Z,2.60
2019-03-22T08:06:38.827Z,2.70
2019-03-22T08:09:05.667Z,2.77
2019-03-22T08:11:32.411Z,2.92
2019-03-22T08:13:59.200Z,3.06
2019-03-22T08:16:25.951Z,3.21
2019-03-22T08:18:52.843Z,3.34
2019-03-22T08:21:19.593Z,3.44
2019-03-22T08:23:46.326Z,3.57
2019-03-22T08:26:13.127Z,3.68
2019-03-22T08:28:39.880Z,3.81
2019-03-22T08:31:06.604Z,3.99
2019-03-22T08:33:33.609Z,4.07
2019-03-22T08:36:00.312Z,4.20
2019-03-22T08:38:27.060Z,4.32
2019-03-22T08:40:53.938Z,4.40
2019-03-22T08:43:20.707Z,4.52
2019-03-22T08:45:47.461Z,4.65
2019-03-22T08:48:14.346Z,4.71
2019-03-22T08:50:41.076Z,4.86
2019-03-22T08:53:07.786Z,5.00
2019-03-22T08:55:34.615Z,5.11
2019-03-22T08:58:01.351Z,5.15
2019-03-22T09:00:38.634Z,5.32
2019-03-22T09:02:56.767Z,5.48
2019-03-22T09:05:23.506Z,5.60
2019-03-22T09:07:50.307Z,5.72
2019-03-22T09:10:17.080Z,5.75
2019-03-22T09:12:43.980Z,5.89
2019-03-22T09:15:11.056Z,5.96
2019-03-22T09:17:37.758Z,6.08
2019-03-22T09:20:07.358Z,6.19
2019-03-22T09:22:34.107Z,6.31
2019-03-22T09:25:01.009Z,6.55
2019-03-22T09:27:27.779Z,6.68
2019-03-22T09:29:54.495Z,6.83
2019-03-22T09:32:21.387Z,6.90
2019-03-22T09:34:48.123Z,6.90
2019-03-22T09:37:14.903Z,7.02
2019-03-22T09:39:41.794Z,7.14
2019-03-22T09:42:08.543Z,7.27
2019-03-22T09:44:43.207Z,7.40
2019-03-22T09:47:04.099Z,7.54
2019-03-22T09:49:30.842Z,7.51
2019-03-22T09:51:57.587Z,7.64
2019-03-22T09:54:24.482Z,7.70
2019-03-22T09:56:51.239Z,7.73
2019-03-22T09:59:17.975Z,7.81
2019-03-22T10:01:44.847Z,7.79
2019-03-22T10:04:12.602Z,7.64
2019-03-22T10:06:39.317Z,7.76
2019-03-22T10:09:06.198Z,7.75
2019-03-22T10:11:32.939Z,7.77
2019-03-22T10:13:59.677Z,7.85
2019-03-22T10:16:26.600Z,7.90
2019-03-22T10:18:53.319Z,7.97
2019-03-22T10:21:22.606Z,8.02
2019-03-22T10:23:48.737Z,8.13
2019-03-22T10:26:15.535Z,8.18
2019-03-22T10:28:42.257Z,8.31
2019-03-22T10:31:09.027Z,8.41
2019-03-22T10:33:35.766Z,8.50
2019-03-22T10:36:02.750Z,8.62
2019-03-22T10:38:31.713Z,8.78
2019-03-22T10:40:58.052Z,8.89
2019-03-22T10:43:24.820Z,9.07
2019-03-22T10:45:51.642Z,9.25
2019-03-22T10:48:18.497Z,9.75
2019-03-22T10:50:45.261Z,10.55
2019-03-22T10:53:11.972Z,11.71
2019-03-22T10:55:38.855Z,13.07
2019-03-22T10:58:19.771Z,14.38
2019-03-22T11:00:34.139Z,15.58
2019-03-22T11:03:01.005Z,16.65
2019-03-22T11:05:27.766Z,17.58
2019-03-22T11:07:54.477Z,18.40
2019-03-22T11:10:21.342Z,19.05
2019-03-22T11:12:48.073Z,19.53
2019-03-22T11:15:15.027Z,19.90
2019-03-22T11:17:41.819Z,20.28
2019-03-22T11:20:12.365Z,20.58
2019-03-22T11:22:39.381Z,20.62
2019-03-22T11:25:07.227Z,20.75
2019-03-22T11:27:33.976Z,20.86
2019-03-22T11:30:00.850Z,21.11
2019-03-22T11:32:27.602Z,21.26
2019-03-22T11:34:54.330Z,21.38
2019-03-22T11:37:21.230Z,21.46
2019-03-22T11:39:48.000Z,21.52
2019-03-22T11:42:14.871Z,21.53
2019-03-22T11:44:42.683Z,21.47
2019-03-22T11:47:09.490Z,21.48
2019-03-22T11:49:36.510Z,21.53
2019-03-22T11:52:03.631Z,21.55
2019-03-22T11:54:30.395Z,21.44
2019-03-22T11:56:57.379Z,21.36
2019-03-22T11:59:24.132Z,21.16
2019-03-22T12:01:50.899Z,20.98
2019-03-22T12:04:17.785Z,20.81
2019-03-22T12:06:47.255Z,20.72
2019-03-22T12:09:13.997Z,20.59
2019-03-22T12:11:42.132Z,20.45
2019-03-22T12:14:09.144Z,20.31
2019-03-22T12:16:36.023Z,20.20
2019-03-22T12:19:02.873Z,20.04
2019-03-22T12:21:29.607Z,19.83
2019-03-22T12:23:56.486Z,19.69
2019-03-22T12:26:23.236Z,19.49
2019-03-22T12:28:49.972Z,19.37
2019-03-22T12:31:16.862Z,19.26
2019-03-22T12:33:43.611Z,19.11
2019-03-22T12:36:10.845Z,19.07
2019-03-22T12:38:37.716Z,19.00
2019-03-22T12:41:04.555Z,18.99
2019-03-22T12:43:31.282Z,18.88
2019-03-22T12:45:58.531Z,18.80
2019-03-22T12:48:25.338Z,18.84
2019-03-22T12:50:52.306Z,18.88
2019-03-22T12:53:19.212Z,18.91
2019-03-22T12:55:45.971Z,18.80
2019-03-22T12:58:12.692Z,18.77
2019-03-22T13:00:39.590Z,18.77
2019-03-22T13:03:06.345Z,18.84
2019-03-22T13:05:33.105Z,18.94
2019-03-22T13:07:59.998Z,18.94
2019-03-22T13:10:28.066Z,18.90
2019-03-22T13:12:54.900Z,18.92
2019-03-22T13:15:21.809Z,18.86
2019-03-22T13:17:48.641Z,18.68
2019-03-22T13:20:15.786Z,18.61
2019-03-22T13:22:42.705Z,18.42
2019-03-22T13:25:11.664Z,18.14
2019-03-22T13:27:38.398Z,17.97
2019-03-22T13:30:12.337Z,17.98
2019-03-22T13:32:39.071Z,17.90
2019-03-22T13:35:05.814Z,17.79
2019-03-22T13:37:35.304Z,17.74
2019-03-22T13:40:05.824Z,17.67
2019-03-22T13:42:32.502Z,17.70
2019-03-22T13:44:59.385Z,17.82
2019-03-22T13:47:26.158Z,17.75
2019-03-22T13:49:52.920Z,17.78
2019-03-22T13:52:19.778Z,17.78
2019-03-22T13:54:46.533Z,17.72
2019-03-22T13:57:13.362Z,17.68
2019-03-22T13:59:44.213Z,17.57
2019-03-22T14:02:12.558Z,17.55
2019-03-22T14:04:40.198Z,17.47
2019-03-22T14:07:07.031Z,17.43
2019-03-22T14:09:33.759Z,17.31
2019-03-22T14:12:00.662Z,17.30
2019-03-22T14:14:27.413Z,17.23
2019-03-22T14:16:54.201Z,17.19
2019-03-22T14:19:21.038Z,17.22
2019-03-22T14:21:47.950Z,17.34
2019-03-22T14:24:14.677Z,17.43
2019-03-22T14:26:41.566Z,17.52
2019-03-22T14:29:08.318Z,17.51
2019-03-22T14:31:35.058Z,17.52
2019-03-22T14:34:01.986Z,17.41
2019-03-22T14:36:48.751Z,17.43
2019-03-22T14:39:15.617Z,17.42
2019-03-22T14:41:42.455Z,17.48
2019-03-22T14:44:09.194Z,17.37
2019-03-22T14:46:36.018Z,17.25
2019-03-22T14:49:02.755Z,17.18
2019-03-22T14:51:29.683Z,17.13
2019-03-22T14:53:56.432Z,17.04
2019-03-22T14:56:23.166Z,16.87
2019-03-22T14:58:49.942Z,16.74
2019-03-22T15:01:16.693Z,16.56
2019-03-22T15:03:43.585Z,16.46
2019-03-22T15:06:10.334Z,16.19
2019-03-22T15:08:37.057Z,16.09
2019-03-22T15:11:03.932Z,15.97
2019-03-22T15:13:30.646Z,16.01
2019-03-22T15:15:57.388Z,15.92
2019-03-22T15:18:24.274Z,15.82
2019-03-22T15:20:51.026Z,15.51
2019-03-22T15:23:17.739Z,15.41
2019-03-22T15:25:44.607Z,15.35
2019-03-22T15:28:11.360Z,15.41
2019-03-22T15:30:38.101Z,15.49
2019-03-22T15:33:04.978Z,15.29
2019-03-22T15:35:31.848Z,15.33
2019-03-22T15:37:58.535Z,15.29
2019-03-22T15:40:25.447Z,15.25
2019-03-22T15:42:52.189Z,15.03
2019-03-22T15:45:18.907Z,14.85
2019-03-22T15:47:45.786Z,14.48
2019-03-22T15:50:14.265Z,13.99
2019-03-22T15:52:41.145Z,13.54
2019-03-22T15:55:07.954Z,13.44
2019-03-22T15:57:34.710Z,13.26
2019-03-22T16:00:01.625Z,13.11
2019-03-22T16:02:28.415Z,12.79
2019-03-22T16:04:55.147Z,12.76
2019-03-22T16:07:22.062Z,12.65
2019-03-22T16:09:48.795Z,12.48
2019-03-22T16:12:15.552Z,12.35
2019-03-22T16:14:42.423Z,12.22
2019-03-22T16:17:09.150Z,12.00
2019-03-22T16:19:35.898Z,11.84
2019-03-22T16:22:02.871Z,11.70
2019-03-22T16:24:29.679Z,11.59
2019-03-22T16:26:56.355Z,11.47
2019-03-22T16:29:23.114Z,11.32
2019-03-22T16:31:49.853Z,11.25
2019-03-22T16:34:16.738Z,11.06
2019-03-22T16:36:43.513Z,11.00
2019-03-22T16:39:10.260Z,10.92
2019-03-22T16:41:37.019Z,10.84
2019-03-22T16:44:03.761Z,10.80
2019-03-22T16:46:30.739Z,10.66
2019-03-22T16:48:57.521Z,10.60
2019-03-22T16:51:24.254Z,10.45
2019-03-22T16:53:51.166Z,10.30
2019-03-22T16:56:19.695Z,10.18
2019-03-22T16:58:46.433Z,10.12
2019-03-22T17:01:13.224Z,9.99
2019-03-22T17:03:39.967Z,9.89
2019-03-22T17:06:06.876Z,9.78
2019-03-22T17:08:37.451Z,9.68
2019-03-22T17:11:04.836Z,9.59
2019-03-22T17:13:31.610Z,9.53
2019-03-22T17:15:58.331Z,9.38
2019-03-22T17:18:25.256Z,9.26
2019-03-22T17:20:52.019Z,9.17
2019-03-22T17:23:18.766Z,9.06
2019-03-22T17:25:45.709Z,8.96
2019-03-22T17:28:12.443Z,8.90
2019-03-22T17:30:39.176Z,8.81
2019-03-22T17:33:07.900Z,8.68
2019-03-22T17:35:34.737Z,8.60
2019-03-22T17:38:01.469Z,8.55
2019-03-22T17:40:28.325Z,8.45
2019-03-22T17:42:55.048Z,8.37
2019-03-22T17:45:21.935Z,8.28
2019-03-22T17:47:48.720Z,8.21
2019-03-22T17:50:16.032Z,8.12
2019-03-22T17:52:42.931Z,8.06
2019-03-22T17:55:11.671Z,8.00
2019-03-22T17:57:38.418Z,7.90
2019-03-22T18:00:09.665Z,7.81
2019-03-22T18:02:36.694Z,7.73
2019-03-22T18:05:07.549Z,7.69
2019-03-22T18:07:34.441Z,7.66
2019-03-22T18:10:01.388Z,7.60
2019-03-22T18:12:28.519Z,7.56
2019-03-22T18:14:55.401Z,7.48
2019-03-22T18:17:22.132Z,7.38
2019-03-22T18:19:48.867Z,7.32
2019-03-22T18:22:15.757Z,7.31
2019-03-22T18:24:42.481Z,7.25
2019-03-22T18:27:09.234Z,7.20
2019-03-22T18:29:36.010Z,7.15
2019-03-22T18:32:02.761Z,7.12
2019-03-22T18:34:34.400Z,7.14
2019-03-22T18:36:58.244Z,7.15
2019-03-22T18:39:24.990Z,7.12
2019-03-22T18:41:51.896Z,7.07
2019-03-22T18:44:18.646Z,7.01
2019-03-22T18:46:45.811Z,6.95
2019-03-22T18:49:13.028Z,6.91
2019-03-22T18:51:39.749Z,6.86
2019-03-22T18:54:06.498Z,6.76
2019-03-22T18:56:33.340Z,6.70
2019-03-22T18:59:00.060Z,6.66
2019-03-22T19:01:26.949Z,6.62
2019-03-22T19:03:53.702Z,6.61
2019-03-22T19:06:21.882Z,6.56
2019-03-22T19:08:48.944Z,6.50
2019-03-22T19:11:15.657Z,6.44
2019-03-22T19:13:42.409Z,6.39
2019-03-22T19:16:09.186Z,6.34
2019-03-22T19:18:36.217Z,6.25
2019-03-22T19:21:22.858Z,6.16
2019-03-22T19:23:52.125Z,6.08
2019-03-22T19:26:18.821Z,6.03
2019-03-22T19:28:45.717Z,5.93
2019-03-22T19:31:12.614Z,5.84
2019-03-22T19:33:39.344Z,5.79
2019-03-22T19:36:06.225Z,5.77
2019-03-22T19:38:32.966Z,5.75
2019-03-22T19:40:59.878Z,5.76
2019-03-22T19:43:28.643Z,5.70
2019-03-22T19:45:55.304Z,5.66
2019-03-22T19:48:22.080Z,5.62
2019-03-22T19:50:48.805Z,5.60
2019-03-22T19:53:15.678Z,5.58
2019-03-22T19:55:42.579Z,5.51
2019-03-22T19:58:09.318Z,5.43
2019-03-22T20:00:36.215Z,5.33
2019-03-22T20:03:02.970Z,5.27
2019-03-22T20:05:32.807Z,5.19
2019-03-22T20:08:00.691Z,5.14
2019-03-22T20:10:27.511Z,5.06
2019-03-22T20:12:54.480Z,5.04
2019-03-22T20:15:21.261Z,5.03
2019-03-22T20:17:47.999Z,5.03
2019-03-22T20:20:14.999Z,5.02
2019-03-22T20:22:41.734Z,4.95
2019-03-22T20:25:09.276Z,4.90
2019-03-22T20:27:36.135Z,4.85
2019-03-22T20:30:07.506Z,4.87
2019-03-22T20:32:34.270Z,4.83
2019-03-22T20:35:01.247Z,4.80
2019-03-22T20:37:27.983Z,4.79
2019-03-22T20:39:54.713Z,4.78
2019-03-22T20:42:21.488Z,4.73
2019-03-22T20:44:48.240Z,4.67
2019-03-22T20:47:15.104Z,4.67
2019-03-22T20:49:41.833Z,4.67
2019-03-22T20:52:08.597Z,4.65
2019-03-22T20:54:35.476Z,4.64
2019-03-22T20:57:02.251Z,4.62
2019-03-22T20:59:29.006Z,4.54
2019-03-22T21:01:55.765Z,4.47
2019-03-22T21:04:22.502Z,4.41
2019-03-22T21:06:49.451Z,4.37
2019-03-22T21:09:16.163Z,4.32
2019-03-22T21:11:42.881Z,4.27
2019-03-22T21:14:09.769Z,4.19
2019-03-22T21:16:36.517Z,4.14
2019-03-22T21:19:03.272Z,4.11
2019-03-22T21:21:36.248Z,4.07
2019-03-22T21:23:58.568Z,4.03
2019-03-22T21:26:25.451Z,4.00
2019-03-22T21:28:52.199Z,3.94
2019-03-22T21:31:18.923Z,3.88
2019-03-22T21:33:45.804Z,3.88
2019-03-22T21:36:12.551Z,3.86
2019-03-22T21:38:39.282Z,3.82
2019-03-22T21:41:06.083Z,3.77
2019-03-22T21:43:32.811Z,3.75
2019-03-22T21:45:59.691Z,3.71
2019-03-22T21:48:26.419Z,3.67
2019-03-22T21:50:53.152Z,3.67
2019-03-22T21:53:20.041Z,3.66
2019-03-22T21:55:46.789Z,3.59
2019-03-22T21:58:13.578Z,3.56
2019-03-22T22:00:40.356Z,3.57
2019-03-22T22:03:07.096Z,3.50
2019-03-22T22:05:34.002Z,3.47
2019-03-22T22:08:00.749Z,3.43
2019-03-22T22:10:27.496Z,3.41
2019-03-22T22:12:54.269Z,3.43
2019-03-22T22:15:21.017Z,3.45
2019-03-22T22:17:47.902Z,3.43
2019-03-22T22:20:14.621Z,3.39
2019-03-22T22:22:41.452Z,3.36
2019-03-22T22:25:08.938Z,3.37
2019-03-22T22:27:35.678Z,3.33
2019-03-22T22:30:06.833Z,3.30
2019-03-22T22:32:33.626Z,3.28
2019-03-22T22:35:00.492Z,3.31
2019-03-22T22:37:27.311Z,3.30
2019-03-22T22:39:54.069Z,3.29
2019-03-22T22:42:20.815Z,3.38
2019-03-22T22:44:47.718Z,3.40
2019-03-22T22:47:14.454Z,3.42
2019-03-22T22:49:41.204Z,3.43
2019-03-22T22:52:08.388Z,3.47
2019-03-22T22:54:35.115Z,3.49
2019-03-22T22:57:01.846Z,3.51
2019-03-22T22:59:28.674Z,3.50
2019-03-22T23:01:55.417Z,3.48
2019-03-22T23:04:22.153Z,3.42
2019-03-22T23:06:48.945Z,3.34
2019-03-22T23:09:15.661Z,3.27
2019-03-22T23:11:42.390Z,3.14
2019-03-22T23:14:09.249Z,3.12
2019-03-22T23:16:36.000Z,3.09
2019-03-22T23:19:02.758Z,2.99
2019-03-22T23:21:29.632Z,3.02
2019-03-22T23:23:56.392Z,3.00
2019-03-22T23:26:23.146Z,2.97
2019-03-22T23:28:50.014Z,2.93
2019-03-22T23:31:16.740Z,2.86
2019-03-22T23:33:43.465Z,2.85
2019-03-22T23:36:19.756Z,2.83
2019-03-22T23:38:38.797Z,2.82
2019-03-22T23:41:05.705Z,2.79
2019-03-22T23:43:32.432Z,2.79
2019-03-22T23:45:59.209Z,2.82
2019-03-22T23:48:26.115Z,2.92
2019-03-22T23:50:52.862Z,2.99
2019-03-22T23:53:19.597Z,3.06
2019-03-22T23:55:46.456Z,3.04
2019-03-22T23:58:13.200Z,3.02
